EZY94MC EGKK-LGSA
Flight info
| Callsign | EZY94MC |
|---|---|
| Flight time | N/A |
| Altitude | 35000 |
| Route | MIMFO Y312 DVR UL9 KONAN DCT KOK UL607 FERDI DCT REMBA DCT LIRSU DCT KRH DCT BATUB DCT TIRUL M738 NATAG DCT LORLO DCT BORMI DCT AKADO DCT IXONA DCT AMUGO DCT VAKSU DCT DIMIS DCT IPTES UL604 TRL UL612 RUSOS |
| Aircraft | A320/M-SDE3FGHIRWY/LB1 |
Departure
| Time | 2026-04-18 10:01 |
|---|---|
| Airport | London Gatwick Airport (EGKK) |
Arrival
| Time | N/A |
|---|---|
| Airport | Chania International Airport (LGSA) |
| Time | Latitude | Longitude | Altitude | Speed | Heading |
|---|---|---|---|---|---|
| 2026-04-18 09:11 | 51.15416 | -0.18912 | 212 ft | 0 kts | 257° |
| 2026-04-18 09:50 | 51.15417 | -0.18904 | 203 ft | 2 kts | 257° |
| 2026-04-18 09:50 | 51.15421 | -0.18874 | 213 ft | 3 kts | 257° |
| 2026-04-18 09:50 | 51.15425 | -0.18843 | 210 ft | 3 kts | 257° |
| 2026-04-18 09:50 | 51.15430 | -0.18814 | 208 ft | 3 kts | 235° |
| 2026-04-18 09:51 | 51.15443 | -0.18796 | 206 ft | 3 kts | 191° |
| 2026-04-18 09:51 | 51.15458 | -0.18795 | 208 ft | 1 kts | 167° |
| 2026-04-18 09:51 | 51.15472 | -0.18800 | 209 ft | 3 kts | 167° |
| 2026-04-18 09:51 | 51.15485 | -0.18804 | 216 ft | 1 kts | 167° |
| 2026-04-18 09:52 | 51.15485 | -0.18805 | 216 ft | 0 kts | 167° |
| 2026-04-18 09:54 | 51.15480 | -0.18803 | 203 ft | 3 kts | 168° |
| 2026-04-18 09:54 | 51.15445 | -0.18791 | 203 ft | 8 kts | 169° |
| 2026-04-18 09:54 | 51.15375 | -0.18766 | 205 ft | 12 kts | 169° |
| 2026-04-18 09:54 | 51.15290 | -0.18735 | 209 ft | 13 kts | 167° |
| 2026-04-18 09:55 | 51.15206 | -0.18707 | 208 ft | 11 kts | 168° |
| 2026-04-18 09:55 | 51.15149 | -0.18668 | 209 ft | 8 kts | 126° |
| 2026-04-18 09:55 | 51.15150 | -0.18589 | 208 ft | 6 kts | 78° |
| 2026-04-18 09:55 | 51.15158 | -0.18527 | 203 ft | 5 kts | 78° |
| 2026-04-18 09:56 | 51.15167 | -0.18465 | 206 ft | 10 kts | 77° |
| 2026-04-18 09:56 | 51.15177 | -0.18395 | 208 ft | 9 kts | 77° |
| 2026-04-18 09:56 | 51.15187 | -0.18301 | 210 ft | 8 kts | 85° |
| 2026-04-18 09:56 | 51.15194 | -0.18222 | 207 ft | 7 kts | 78° |
| 2026-04-18 09:57 | 51.15213 | -0.18086 | 204 ft | 16 kts | 77° |
| 2026-04-18 09:57 | 51.15237 | -0.17907 | 204 ft | 17 kts | 78° |
| 2026-04-18 09:57 | 51.15264 | -0.17715 | 208 ft | 18 kts | 77° |
| 2026-04-18 09:57 | 51.15289 | -0.17529 | 209 ft | 18 kts | 78° |
| 2026-04-18 09:58 | 51.15296 | -0.17376 | 204 ft | 12 kts | 116° |
| 2026-04-18 09:58 | 51.15243 | -0.17297 | 214 ft | 10 kts | 120° |
| 2026-04-18 09:58 | 51.15250 | -0.17206 | 209 ft | 8 kts | 76° |
| 2026-04-18 09:58 | 51.15261 | -0.17124 | 215 ft | 8 kts | 77° |
| 2026-04-18 09:59 | 51.15271 | -0.17051 | 206 ft | 6 kts | 77° |
| 2026-04-18 09:59 | 51.15284 | -0.16958 | 204 ft | 13 kts | 77° |
| 2026-04-18 09:59 | 51.15265 | -0.16823 | 210 ft | 13 kts | 150° |
| 2026-04-18 10:00 | 51.15115 | -0.16846 | 211 ft | 11 kts | 248° |
| 2026-04-18 10:00 | 51.15109 | -0.16886 | 206 ft | 0 kts | 258° |
| 2026-04-18 10:00 | 51.15079 | -0.17108 | 204 ft | 55 kts | 258° |
| 2026-04-18 10:00 | 51.14948 | -0.18057 | 207 ft | 118 kts | 258° |
| 2026-04-18 10:01 | 51.14739 | -0.19597 | 224 ft | 163 kts | 259° |
| 2026-04-18 10:01 | 51.14524 | -0.21373 | 830 ft | 164 kts | 261° |
| 2026-04-18 10:01 | 51.14294 | -0.23182 | 1426 ft | 174 kts | 261° |
| 2026-04-18 10:01 | 51.14026 | -0.25160 | 1745 ft | 190 kts | 260° |
| 2026-04-18 10:02 | 51.13758 | -0.27248 | 2287 ft | 194 kts | 266° |
| 2026-04-18 10:02 | 51.13934 | -0.29348 | 2900 ft | 192 kts | 293° |
| 2026-04-18 10:02 | 51.14696 | -0.31091 | 3477 ft | 195 kts | 318° |
| 2026-04-18 10:02 | 51.15883 | -0.32095 | 4002 ft | 201 kts | 344° |
| 2026-04-18 10:03 | 51.17301 | -0.32084 | 4553 ft | 210 kts | 12° |
| 2026-04-18 10:03 | 51.18586 | -0.30912 | 5081 ft | 220 kts | 43° |
| 2026-04-18 10:03 | 51.19350 | -0.28778 | 5598 ft | 228 kts | 75° |
| 2026-04-18 10:03 | 51.19671 | -0.26240 | 5963 ft | 239 kts | 78° |
| 2026-04-18 10:04 | 51.19979 | -0.23608 | 6443 ft | 243 kts | 79° |
| 2026-04-18 10:04 | 51.20289 | -0.20938 | 6933 ft | 247 kts | 79° |
| 2026-04-18 10:04 | 51.20622 | -0.18193 | 7258 ft | 262 kts | 78° |
| 2026-04-18 10:04 | 51.20999 | -0.15218 | 7509 ft | 285 kts | 78° |
| 2026-04-18 10:05 | 51.21411 | -0.12048 | 8038 ft | 296 kts | 78° |
| 2026-04-18 10:05 | 51.21839 | -0.08803 | 8728 ft | 302 kts | 78° |
| 2026-04-18 10:05 | 51.22273 | -0.05513 | 9442 ft | 306 kts | 78° |
| 2026-04-18 10:05 | 51.22714 | -0.02154 | 10143 ft | 311 kts | 79° |
| 2026-04-18 10:06 | 51.23158 | 0.01248 | 10671 ft | 315 kts | 79° |
| 2026-04-18 10:06 | 51.23605 | 0.04696 | 11285 ft | 320 kts | 79° |
| 2026-04-18 10:06 | 51.24056 | 0.08200 | 11912 ft | 324 kts | 79° |
| 2026-04-18 10:06 | 51.24513 | 0.11751 | 12522 ft | 329 kts | 79° |
| 2026-04-18 10:07 | 51.24978 | 0.15353 | 13128 ft | 334 kts | 79° |
| 2026-04-18 10:07 | 51.25326 | 0.19034 | 13703 ft | 337 kts | 89° |
| 2026-04-18 10:07 | 51.25299 | 0.22789 | 14225 ft | 339 kts | 99° |
| 2026-04-18 10:07 | 51.25014 | 0.26534 | 14767 ft | 342 kts | 101° |
| 2026-04-18 10:08 | 51.24719 | 0.30317 | 15312 ft | 345 kts | 101° |
| 2026-04-18 10:08 | 51.24428 | 0.34133 | 15865 ft | 348 kts | 100° |
| 2026-04-18 10:08 | 51.24138 | 0.37994 | 16433 ft | 352 kts | 100° |
| 2026-04-18 10:08 | 51.23843 | 0.41892 | 16867 ft | 356 kts | 101° |
| 2026-04-18 10:09 | 51.23544 | 0.45809 | 16962 ft | 356 kts | 101° |
| 2026-04-18 10:09 | 51.23237 | 0.49759 | 16995 ft | 365 kts | 100° |
| 2026-04-18 10:09 | 51.22914 | 0.53862 | 17136 ft | 381 kts | 100° |
| 2026-04-18 10:09 | 51.22576 | 0.58144 | 17318 ft | 396 kts | 100° |
| 2026-04-18 10:10 | 51.22232 | 0.62551 | 17749 ft | 402 kts | 100° |
| 2026-04-18 10:10 | 51.21887 | 0.66999 | 18281 ft | 406 kts | 100° |
| 2026-04-18 10:10 | 51.21536 | 0.71493 | 18766 ft | 410 kts | 100° |
| 2026-04-18 10:10 | 51.21179 | 0.76016 | 19237 ft | 413 kts | 100° |
| 2026-04-18 10:11 | 51.20824 | 0.80509 | 19707 ft | 416 kts | 100° |
| 2026-04-18 10:11 | 51.20455 | 0.85164 | 20190 ft | 419 kts | 100° |
| 2026-04-18 10:11 | 51.20085 | 0.89791 | 20667 ft | 422 kts | 100° |
| 2026-04-18 10:11 | 51.19712 | 0.94381 | 21151 ft | 425 kts | 101° |
| 2026-04-18 10:12 | 51.19325 | 0.99062 | 21566 ft | 427 kts | 100° |
| 2026-04-18 10:12 | 51.18935 | 1.03773 | 21989 ft | 430 kts | 100° |
| 2026-04-18 10:12 | 51.18543 | 1.08520 | 22408 ft | 433 kts | 100° |
| 2026-04-18 10:12 | 51.18150 | 1.13294 | 22814 ft | 436 kts | 100° |
| 2026-04-18 10:13 | 51.17756 | 1.18090 | 23160 ft | 437 kts | 100° |
| 2026-04-18 10:13 | 51.17354 | 1.22918 | 23527 ft | 441 kts | 100° |
| 2026-04-18 10:13 | 51.16942 | 1.27777 | 23905 ft | 444 kts | 101° |
| 2026-04-18 10:13 | 51.16526 | 1.32667 | 24228 ft | 447 kts | 101° |
| 2026-04-18 10:14 | 51.16121 | 1.37588 | 24550 ft | 450 kts | 99° |
| 2026-04-18 10:14 | 51.15806 | 1.42563 | 24838 ft | 453 kts | 97° |
| 2026-04-18 10:14 | 51.15568 | 1.47578 | 25157 ft | 456 kts | 96° |
| 2026-04-18 10:14 | 51.15369 | 1.52635 | 25454 ft | 459 kts | 96° |
| 2026-04-18 10:15 | 51.15177 | 1.57720 | 25748 ft | 461 kts | 96° |